createdAt,value
2018-02-14T00:00:36.945Z,11.75
2018-02-14T00:03:04.387Z,13.03
2018-02-14T00:05:31.821Z,14.37
2018-02-14T00:07:59.241Z,12.83
2018-02-14T00:10:26.664Z,12.17
2018-02-14T00:12:54.078Z,13.83
2018-02-14T00:15:21.515Z,14.38
2018-02-14T00:17:48.924Z,14.27
2018-02-14T00:20:16.349Z,14.30
2018-02-14T00:22:43.766Z,14.67
2018-02-14T00:25:11.190Z,14.10
2018-02-14T00:27:39.093Z,12.80
2018-02-14T00:30:06.518Z,12.57
2018-02-14T00:32:33.951Z,14.00
2018-02-14T00:35:01.370Z,14.40
2018-02-14T00:37:28.878Z,12.30
2018-02-14T00:39:56.314Z,13.18
2018-02-14T00:42:23.730Z,12.07
2018-02-14T00:44:51.154Z,11.30
2018-02-14T00:47:18.570Z,13.13
2018-02-14T00:49:45.970Z,12.17
2018-02-14T00:52:13.394Z,12.50
2018-02-14T00:54:40.820Z,12.07
2018-02-14T00:57:08.242Z,13.07
2018-02-14T00:59:35.655Z,13.70
2018-02-14T01:02:03.088Z,11.97
2018-02-14T01:04:30.514Z,14.67
2018-02-14T01:06:57.959Z,13.43
2018-02-14T01:09:25.479Z,13.70
2018-02-14T01:11:52.910Z,12.87
2018-02-14T01:14:20.319Z,15.30
2018-02-14T01:16:47.743Z,15.00
2018-02-14T01:19:17.145Z,16.70
2018-02-14T01:21:50.478Z,15.00
2018-02-14T01:24:17.900Z,13.50
2018-02-14T01:26:45.313Z,14.90
2018-02-14T01:29:12.730Z,15.97
2018-02-14T01:31:40.161Z,15.20
2018-02-14T01:34:08.068Z,14.05
2018-02-14T01:36:35.491Z,15.57
2018-02-14T01:39:02.926Z,15.90
2018-02-14T01:41:30.364Z,14.00
2018-02-14T01:43:57.841Z,16.57
2018-02-14T01:46:25.360Z,15.07
2018-02-14T01:48:52.798Z,16.30
2018-02-14T01:51:20.237Z,14.73
2018-02-14T01:53:47.653Z,15.77
2018-02-14T01:56:15.052Z,14.03
2018-02-14T01:58:42.767Z,14.63
2018-02-14T02:01:10.197Z,15.13
2018-02-14T02:03:37.615Z,15.60
2018-02-14T02:06:05.030Z,15.40
2018-02-14T02:11:05.229Z,15.50
2018-02-14T02:13:32.658Z,16.63
2018-02-14T02:16:00.070Z,15.90
2018-02-14T02:18:27.474Z,16.37
2018-02-14T02:20:54.954Z,14.67
2018-02-14T02:23:22.372Z,15.17
2018-02-14T02:25:49.834Z,15.93
2018-02-14T02:28:17.269Z,14.70
2018-02-14T02:30:44.689Z,17.17
2018-02-14T02:33:12.135Z,15.23
2018-02-14T02:35:39.557Z,14.67
2018-02-14T02:38:06.983Z,15.67
2018-02-14T02:40:34.436Z,15.55
2018-02-14T02:43:01.854Z,16.37
2018-02-14T02:45:29.265Z,15.00
2018-02-14T02:47:56.695Z,14.00
2018-02-14T02:50:24.118Z,15.60
2018-02-14T02:52:51.547Z,14.60
2018-02-14T02:55:18.953Z,14.30
2018-02-14T02:57:46.424Z,14.67
2018-02-14T03:00:13.914Z,15.33
2018-02-14T03:02:41.333Z,16.03
2018-02-14T03:05:08.755Z,13.60
2018-02-14T03:07:36.184Z,14.00
2018-02-14T03:10:03.629Z,15.17
2018-02-14T03:12:31.051Z,13.73
2018-02-14T03:14:58.533Z,13.00
2018-02-14T03:17:25.987Z,14.43
2018-02-14T03:19:53.459Z,13.23
2018-02-14T03:22:20.876Z,11.87
2018-02-14T03:24:48.315Z,13.47
2018-02-14T03:27:16.757Z,13.70
2018-02-14T03:29:44.174Z,13.80
2018-02-14T03:32:11.589Z,13.67
2018-02-14T03:34:39.046Z,14.05
2018-02-14T03:37:06.462Z,15.40
2018-02-14T03:39:33.887Z,14.83
2018-02-14T03:42:01.314Z,13.90
2018-02-14T03:44:28.748Z,14.67
2018-02-14T03:46:56.170Z,14.97
2018-02-14T03:49:23.599Z,14.40
2018-02-14T03:51:51.038Z,15.13
2018-02-14T03:54:18.475Z,15.73
2018-02-14T03:56:45.904Z,16.23
2018-02-14T03:59:13.337Z,15.00
2018-02-14T04:01:40.862Z,13.80
2018-02-14T04:04:08.288Z,15.50
2018-02-14T04:06:35.810Z,15.97
2018-02-14T04:09:03.223Z,15.07
2018-02-14T04:11:30.652Z,15.33
2018-02-14T04:13:58.060Z,14.93
2018-02-14T04:16:25.529Z,16.03
2018-02-14T04:18:52.966Z,16.50
2018-02-14T04:21:20.440Z,15.03
2018-02-14T04:23:47.889Z,17.20
2018-02-14T04:26:15.345Z,17.70
2018-02-14T04:28:42.779Z,15.57
2018-02-14T04:31:10.422Z,17.00
2018-02-14T04:33:37.905Z,14.82
2018-02-14T04:36:05.341Z,15.47
2018-02-14T04:38:32.791Z,17.03
2018-02-14T04:41:00.668Z,17.30
2018-02-14T04:43:28.092Z,16.43
2018-02-14T04:45:55.538Z,16.70
2018-02-14T04:48:22.954Z,16.50
2018-02-14T04:50:50.837Z,15.02
2018-02-14T04:53:18.260Z,17.67
2018-02-14T04:55:45.691Z,15.33
2018-02-14T04:58:13.111Z,16.45
2018-02-14T05:00:40.537Z,16.30
2018-02-14T05:03:07.963Z,17.83
2018-02-14T05:05:35.442Z,17.05
2018-02-14T05:08:02.887Z,15.30
2018-02-14T05:10:30.336Z,15.80
2018-02-14T05:12:57.764Z,17.27
2018-02-14T05:15:25.183Z,15.70
2018-02-14T05:17:52.629Z,16.27
2018-02-14T05:20:20.053Z,18.40
2018-02-14T05:22:47.505Z,15.27
2018-02-14T05:25:14.970Z,19.10
2018-02-14T05:27:42.403Z,15.70
2018-02-14T05:30:09.826Z,16.30
2018-02-14T05:32:37.302Z,15.43
2018-02-14T05:35:04.791Z,16.50
2018-02-14T05:37:32.212Z,16.17
2018-02-14T05:39:59.705Z,15.57
2018-02-14T05:42:27.135Z,15.60
2018-02-14T05:44:54.542Z,18.70
2018-02-14T05:47:21.980Z,19.35
2018-02-14T05:49:49.403Z,20.27
2018-02-14T05:52:16.826Z,19.10
2018-02-14T05:54:44.257Z,18.48
2018-02-14T05:57:11.718Z,19.03
2018-02-14T05:59:39.143Z,18.17
2018-02-14T06:02:06.571Z,16.93
2018-02-14T06:04:33.974Z,18.13
2018-02-14T06:07:01.406Z,16.02
2018-02-14T06:09:28.849Z,17.53
2018-02-14T06:11:56.270Z,16.43
2018-02-14T06:14:23.828Z,14.80
2018-02-14T06:16:51.244Z,16.13
2018-02-14T06:19:18.684Z,17.57
2018-02-14T06:21:46.224Z,16.90
2018-02-14T06:24:13.679Z,17.90
2018-02-14T06:26:41.129Z,18.47
2018-02-14T06:29:08.553Z,18.67
2018-02-14T06:31:35.965Z,20.17
2018-02-14T06:34:03.394Z,19.63
2018-02-14T06:36:30.826Z,19.30
2018-02-14T06:38:58.302Z,18.30
2018-02-14T06:41:25.725Z,16.87
2018-02-14T06:43:53.153Z,18.77
2018-02-14T06:46:20.578Z,20.70
2018-02-14T06:48:48.000Z,19.30
2018-02-14T06:51:15.400Z,17.77
2018-02-14T06:53:42.911Z,18.50
2018-02-14T06:56:10.294Z,19.40
2018-02-14T06:58:37.716Z,22.42
2018-02-14T07:01:05.169Z,19.67
2018-02-14T07:03:32.625Z,20.92
2018-02-14T07:06:00.055Z,21.87
2018-02-14T07:08:27.502Z,25.00
2018-02-14T07:10:55.498Z,22.70
2018-02-14T07:13:22.921Z,22.20
2018-02-14T07:15:50.351Z,21.17
2018-02-14T07:18:17.785Z,24.33
2018-02-14T07:20:45.195Z,19.90
2018-02-14T07:23:12.609Z,21.60
2018-02-14T07:25:40.034Z,20.57
2018-02-14T07:28:07.478Z,18.60
2018-02-14T07:30:34.896Z,22.47
2018-02-14T07:33:02.303Z,23.60
2018-02-14T07:35:29.730Z,19.20
2018-02-14T07:37:57.146Z,23.17
2018-02-14T07:40:24.586Z,20.87
2018-02-14T07:42:52.024Z,19.87
2018-02-14T07:45:19.534Z,22.90
2018-02-14T07:47:47.061Z,20.10
2018-02-14T07:50:14.513Z,18.25
2018-02-14T07:52:41.932Z,21.67
2018-02-14T07:55:09.354Z,19.10
2018-02-14T07:57:36.807Z,22.23
2018-02-14T08:00:04.234Z,21.13
2018-02-14T08:02:31.673Z,22.00
2018-02-14T08:04:59.092Z,21.50
2018-02-14T08:07:27.220Z,22.52
2018-02-14T08:09:54.679Z,26.10
2018-02-14T08:12:22.084Z,24.05
2018-02-14T08:14:49.535Z,24.40
2018-02-14T08:17:16.954Z,24.87
2018-02-14T08:19:44.453Z,22.23
2018-02-14T08:22:11.873Z,23.20
2018-02-14T08:24:39.299Z,24.43
2018-02-14T08:27:06.732Z,24.70
2018-02-14T08:29:34.141Z,24.17
2018-02-14T08:32:01.562Z,23.70
2018-02-14T08:34:29.021Z,23.33
2018-02-14T08:36:56.480Z,26.43
2018-02-14T08:39:23.973Z,25.17
2018-02-14T08:41:51.404Z,24.10
2018-02-14T08:44:18.830Z,23.93
2018-02-14T08:46:46.332Z,23.90
2018-02-14T08:49:13.746Z,23.70
2018-02-14T08:51:41.162Z,24.60
2018-02-14T08:54:08.629Z,23.87
2018-02-14T08:56:36.046Z,25.30
2018-02-14T08:59:03.513Z,25.95
2018-02-14T09:01:30.976Z,28.23
2018-02-14T09:03:58.812Z,25.62
2018-02-14T09:06:26.274Z,27.00
2018-02-14T09:08:53.702Z,25.70
2018-02-14T09:11:21.172Z,25.70
2018-02-14T09:13:48.590Z,26.30
2018-02-14T09:16:16.039Z,27.55
2018-02-14T09:18:43.449Z,30.00
2018-02-14T09:21:10.865Z,26.33
2018-02-14T09:23:38.329Z,25.17
2018-02-14T09:26:05.750Z,25.60
2018-02-14T09:28:33.219Z,27.50
2018-02-14T09:31:00.678Z,25.37
2018-02-14T09:33:28.093Z,23.63
2018-02-14T09:35:55.524Z,30.00
2018-02-14T09:38:23.045Z,26.20
2018-02-14T09:40:50.474Z,24.00
2018-02-14T09:43:17.992Z,23.07
2018-02-14T09:45:45.457Z,23.00
2018-02-14T09:48:12.864Z,22.83
2018-02-14T09:50:40.290Z,28.60
2018-02-14T09:53:07.716Z,24.50
2018-02-14T09:55:35.123Z,24.95
2018-02-14T09:58:02.551Z,25.53
2018-02-14T10:00:30.698Z,24.70
2018-02-14T10:02:58.121Z,24.07
2018-02-14T10:05:25.541Z,21.90
2018-02-14T10:07:52.977Z,24.80
2018-02-14T10:10:20.385Z,22.57
2018-02-14T10:12:47.815Z,24.02
2018-02-14T10:15:15.225Z,26.27
2018-02-14T10:17:42.657Z,26.60
2018-02-14T10:20:10.100Z,27.45
2018-02-14T10:22:37.525Z,27.03
2018-02-14T10:25:04.937Z,31.57
2018-02-14T10:27:32.354Z,27.65
2018-02-14T10:29:59.789Z,23.07
2018-02-14T10:32:27.302Z,24.20
2018-02-14T10:34:55.688Z,22.62
2018-02-14T10:37:23.104Z,24.37
2018-02-14T10:39:50.531Z,24.50
2018-02-14T10:42:17.946Z,21.77
2018-02-14T10:44:45.406Z,21.40
2018-02-14T10:47:12.829Z,24.10
2018-02-14T10:49:40.245Z,24.27
2018-02-14T10:52:07.674Z,21.70
2018-02-14T10:54:35.094Z,21.93
2018-02-14T10:57:02.611Z,21.92
2018-02-14T10:59:30.035Z,22.83
2018-02-14T11:02:13.108Z,21.05
2018-02-14T11:04:46.144Z,22.67
2018-02-14T11:07:19.351Z,19.03
2018-02-14T11:09:46.917Z,23.20
2018-02-14T11:12:14.329Z,23.77
2018-02-14T11:14:41.748Z,22.83
2018-02-14T11:17:09.252Z,22.13
2018-02-14T11:19:36.689Z,23.30
2018-02-14T11:22:04.173Z,20.17
2018-02-14T11:24:31.582Z,21.27
2018-02-14T11:26:59.032Z,20.87
2018-02-14T11:29:26.456Z,22.13
2018-02-14T11:31:53.862Z,21.17
2018-02-14T11:34:21.291Z,19.93
2018-02-14T11:36:48.697Z,21.55
2018-02-14T11:39:16.133Z,21.50
2018-02-14T11:41:43.570Z,18.70
2018-02-14T11:44:11.021Z,21.05
2018-02-14T11:46:38.430Z,20.58
2018-02-14T11:49:05.898Z,20.67
2018-02-14T11:51:34.354Z,18.42
2018-02-14T11:54:01.773Z,18.07
2018-02-14T11:56:29.240Z,20.30
2018-02-14T11:58:56.662Z,19.33
2018-02-14T12:01:24.104Z,18.87
2018-02-14T12:03:51.527Z,18.60
2018-02-14T12:06:18.949Z,18.90
2018-02-14T12:08:46.394Z,18.23
2018-02-14T12:11:13.846Z,15.68
2018-02-14T12:13:41.259Z,17.90
2018-02-14T12:16:08.675Z,15.77
2018-02-14T12:18:36.098Z,18.40
2018-02-14T12:21:03.514Z,18.60
2018-02-14T12:23:30.949Z,14.73
2018-02-14T12:25:58.364Z,16.08
2018-02-14T12:28:25.907Z,17.20
2018-02-14T12:30:53.328Z,15.57
2018-02-14T12:33:20.740Z,15.97
2018-02-14T12:35:48.223Z,15.83
2018-02-14T12:38:15.745Z,16.10
2018-02-14T12:40:43.169Z,17.70
2018-02-14T12:43:10.639Z,18.40
2018-02-14T12:45:38.064Z,16.37
2018-02-14T12:48:06.161Z,13.93
2018-02-14T12:50:33.662Z,14.90
2018-02-14T12:53:01.084Z,13.82
2018-02-14T12:55:28.559Z,16.13
2018-02-14T12:57:55.965Z,14.20
2018-02-14T13:00:23.406Z,14.95
2018-02-14T13:02:50.850Z,16.17
2018-02-14T13:05:18.363Z,14.17
2018-02-14T13:07:45.794Z,14.82
2018-02-14T13:10:13.217Z,15.20
2018-02-14T13:12:40.648Z,15.03
2018-02-14T13:15:08.188Z,14.77
2018-02-14T13:17:35.729Z,14.03
2018-02-14T13:20:03.154Z,14.50
2018-02-14T13:22:30.616Z,13.77
2018-02-14T13:24:58.117Z,13.80
2018-02-14T13:27:25.524Z,11.60
2018-02-14T13:29:53.795Z,12.37
2018-02-14T13:32:21.205Z,11.60
2018-02-14T13:34:48.661Z,13.27
2018-02-14T13:37:16.082Z,11.87
2018-02-14T13:39:43.543Z,12.10
2018-02-14T13:42:11.028Z,10.48
2018-02-14T13:44:38.444Z,11.40
2018-02-14T13:47:05.860Z,11.53
2018-02-14T13:49:33.271Z,13.38
2018-02-14T13:52:00.706Z,11.50
2018-02-14T13:54:28.105Z,12.00
2018-02-14T13:56:55.533Z,10.98
2018-02-14T13:59:22.985Z,12.40
2018-02-14T14:01:50.397Z,12.87
2018-02-14T14:04:17.904Z,10.50
2018-02-14T14:06:45.353Z,12.00
2018-02-14T14:09:12.807Z,12.40
2018-02-14T14:11:40.229Z,12.13
2018-02-14T14:14:07.665Z,11.60
2018-02-14T14:16:35.080Z,10.10
2018-02-14T14:19:02.498Z,9.35
2018-02-14T14:21:29.918Z,11.80
2018-02-14T14:23:57.339Z,11.73
2018-02-14T14:26:24.767Z,10.15
2018-02-14T14:28:52.265Z,9.97
2018-02-14T14:31:19.668Z,9.97
2018-02-14T14:33:47.108Z,11.60
2018-02-14T14:36:14.533Z,12.47
2018-02-14T14:38:41.948Z,11.90
2018-02-14T14:41:10.476Z,10.15
2018-02-14T14:43:37.902Z,10.83
2018-02-14T14:46:05.310Z,11.50
2018-02-14T14:48:32.812Z,11.30
2018-02-14T14:51:00.210Z,11.40
2018-02-14T14:53:27.630Z,11.90
2018-02-14T14:55:55.081Z,12.03
2018-02-14T14:58:22.502Z,10.27
2018-02-14T15:00:49.912Z,10.90
2018-02-14T15:03:17.327Z,9.90
2018-02-14T15:05:44.742Z,11.93
2018-02-14T15:08:12.162Z,11.63
2018-02-14T15:10:39.570Z,10.63
2018-02-14T15:13:06.989Z,10.60
2018-02-14T15:15:34.400Z,10.20
2018-02-14T15:18:01.817Z,11.63
2018-02-14T15:20:29.246Z,12.10
2018-02-14T15:22:56.769Z,11.10
2018-02-14T15:25:24.183Z,11.17
2018-02-14T15:27:51.604Z,10.43
2018-02-14T15:30:19.020Z,11.27
2018-02-14T15:32:46.485Z,11.77
2018-02-14T15:35:13.953Z,9.83
2018-02-14T15:37:42.310Z,10.40
2018-02-14T15:40:09.769Z,11.15
2018-02-14T15:42:37.176Z,12.40
2018-02-14T15:45:04.591Z,11.10
2018-02-14T15:47:31.994Z,11.50
2018-02-14T15:49:59.421Z,11.40
2018-02-14T15:52:26.833Z,12.13
2018-02-14T15:54:54.248Z,10.80
2018-02-14T15:57:21.661Z,13.07
2018-02-14T15:59:49.129Z,11.33
2018-02-14T16:02:16.477Z,12.27
2018-02-14T16:04:44.065Z,12.27
2018-02-14T16:07:11.536Z,10.63
2018-02-14T16:09:39.023Z,11.13
2018-02-14T16:12:06.427Z,11.60
2018-02-14T16:14:33.868Z,11.90
2018-02-14T16:17:01.294Z,13.38
2018-02-14T16:19:28.792Z,10.70
2018-02-14T16:21:56.216Z,12.87
2018-02-14T16:24:23.669Z,12.18
2018-02-14T16:26:51.117Z,10.95
2018-02-14T16:29:18.601Z,13.03
2018-02-14T16:31:46.015Z,12.20
2018-02-14T16:34:13.429Z,11.77
2018-02-14T16:36:40.866Z,13.67
2018-02-14T16:39:08.303Z,11.33
2018-02-14T16:41:35.709Z,12.87
2018-02-14T16:44:03.134Z,13.23
2018-02-14T16:46:30.557Z,12.03
2018-02-14T16:48:57.990Z,13.40
2018-02-14T16:51:25.404Z,12.00
2018-02-14T16:53:52.805Z,12.10
2018-02-14T16:56:20.230Z,12.88
2018-02-14T16:58:47.650Z,16.53
2018-02-14T17:01:15.071Z,16.60
2018-02-14T17:03:42.535Z,11.88
2018-02-14T17:06:10.029Z,13.53
2018-02-14T17:08:37.440Z,12.70
2018-02-14T17:11:04.872Z,12.03
2018-02-14T17:13:32.293Z,13.67
2018-02-14T17:15:59.706Z,11.73
2018-02-14T17:18:27.205Z,11.90
2018-02-14T17:20:54.633Z,11.10
2018-02-14T17:23:22.094Z,10.52
2018-02-14T17:25:49.550Z,11.27
2018-02-14T17:28:17.747Z,13.82
2018-02-14T17:30:45.165Z,13.07
2018-02-14T17:33:12.624Z,10.27
2018-02-14T17:35:40.041Z,12.03
2018-02-14T17:38:07.449Z,11.27
2018-02-14T17:40:34.858Z,10.50
2018-02-14T17:43:02.330Z,12.30
2018-02-14T17:45:29.764Z,11.87
2018-02-14T17:47:57.237Z,11.40
2018-02-14T17:50:24.671Z,10.93
2018-02-14T17:52:52.135Z,12.23
2018-02-14T17:55:19.585Z,12.10
2018-02-14T17:57:46.990Z,11.20
2018-02-14T18:00:14.409Z,11.77
2018-02-14T18:02:41.860Z,11.30
2018-02-14T18:05:09.259Z,11.43
2018-02-14T18:07:36.668Z,13.47
2018-02-14T18:10:04.095Z,11.33
2018-02-14T18:12:31.514Z,12.50
2018-02-14T18:14:58.936Z,11.50
2018-02-14T18:17:26.366Z,12.17
2018-02-14T18:19:53.764Z,10.97
2018-02-14T18:22:21.173Z,12.97
2018-02-14T18:24:48.581Z,11.40
2018-02-14T18:27:16.112Z,13.23
2018-02-14T18:29:43.557Z,13.37
2018-02-14T18:32:10.976Z,13.20
2018-02-14T18:34:38.386Z,13.80
2018-02-14T18:37:05.838Z,12.95
2018-02-14T18:39:33.228Z,14.00
2018-02-14T18:42:00.648Z,14.93
2018-02-14T18:44:28.084Z,14.03
2018-02-14T18:46:55.501Z,12.70
2018-02-14T18:49:22.913Z,13.30
2018-02-14T18:51:50.401Z,13.57
2018-02-14T18:54:17.809Z,13.55
2018-02-14T18:56:45.237Z,14.50
2018-02-14T18:59:12.650Z,13.00
2018-02-14T19:01:40.102Z,15.67
2018-02-14T19:04:07.505Z,13.97
2018-02-14T19:06:34.942Z,14.37
2018-02-14T19:09:02.393Z,15.33
2018-02-14T19:11:29.806Z,14.90
2018-02-14T19:13:57.312Z,14.80
2018-02-14T19:16:24.735Z,14.07
2018-02-14T19:18:52.929Z,15.00
2018-02-14T19:21:20.376Z,15.00
2018-02-14T19:23:47.779Z,13.43
2018-02-14T19:26:15.185Z,15.47
2018-02-14T19:28:42.626Z,14.67
2018-02-14T19:31:10.073Z,13.27
2018-02-14T19:33:37.494Z,13.90
2018-02-14T19:36:04.985Z,15.60
2018-02-14T19:38:32.418Z,13.83
2018-02-14T19:40:59.851Z,13.43
2018-02-14T19:43:27.272Z,15.82
2018-02-14T19:45:54.699Z,13.03
2018-02-14T19:48:22.119Z,15.83
2018-02-14T19:50:49.569Z,15.25
2018-02-14T19:53:17.005Z,14.07
2018-02-14T19:55:44.409Z,15.30
2018-02-14T19:58:11.836Z,14.05
2018-02-14T20:00:39.257Z,14.23
2018-02-14T20:03:06.766Z,14.07
2018-02-14T20:05:34.191Z,13.60
2018-02-14T20:08:01.631Z,14.50
2018-02-14T20:10:29.048Z,15.40
2018-02-14T20:12:56.460Z,14.70
2018-02-14T20:15:24.507Z,15.07
2018-02-14T20:17:52.928Z,13.80
2018-02-14T20:20:20.382Z,13.60
2018-02-14T20:22:47.797Z,14.63
2018-02-14T20:25:15.230Z,14.90
2018-02-14T20:27:42.642Z,14.90
2018-02-14T20:30:10.103Z,16.57
2018-02-14T20:32:37.574Z,14.97
2018-02-14T20:35:05.002Z,16.03
2018-02-14T20:37:32.421Z,13.70
2018-02-14T20:39:59.877Z,15.50
2018-02-14T20:42:27.289Z,12.87
2018-02-14T20:44:55.322Z,13.98
2018-02-14T20:47:22.743Z,13.70
2018-02-14T20:49:50.185Z,14.73
2018-02-14T20:52:17.629Z,13.97
2018-02-14T20:54:45.074Z,14.53
2018-02-14T20:57:12.498Z,15.53
2018-02-14T20:59:39.936Z,15.77
2018-02-14T21:02:07.392Z,17.70
2018-02-14T21:04:34.837Z,17.83
2018-02-14T21:07:02.255Z,14.10
2018-02-14T21:09:29.673Z,15.05
2018-02-14T21:11:57.126Z,16.90
2018-02-14T21:14:24.549Z,17.60
2018-02-14T21:16:51.993Z,15.60
2018-02-14T21:19:19.414Z,14.10
2018-02-14T21:21:46.891Z,16.77
2018-02-14T21:24:14.312Z,13.13
2018-02-14T21:26:41.816Z,15.17
2018-02-14T21:29:09.227Z,16.10
2018-02-14T21:31:36.709Z,15.20
2018-02-14T21:34:04.158Z,14.73
2018-02-14T21:36:31.586Z,16.00
2018-02-14T21:38:59.026Z,14.63
2018-02-14T21:41:26.883Z,14.80
2018-02-14T21:43:54.317Z,15.53
2018-02-14T21:46:24.612Z,15.07
2018-02-14T21:48:52.053Z,16.27
2018-02-14T21:51:19.485Z,17.10
2018-02-14T21:53:47.011Z,15.30
2018-02-14T21:56:14.427Z,16.47
2018-02-14T21:58:41.835Z,16.70
2018-02-14T22:02:39.016Z,17.00
2018-02-14T22:05:06.437Z,17.47
2018-02-14T22:07:33.848Z,15.60
2018-02-14T22:10:01.271Z,16.90
2018-02-14T22:12:28.693Z,17.40
2018-02-14T22:14:56.105Z,17.43
2018-02-14T22:17:23.523Z,16.17
2018-02-14T22:19:50.933Z,17.00
2018-02-14T22:22:18.354Z,16.20
2018-02-14T22:24:45.764Z,14.00
2018-02-14T22:27:13.181Z,15.03
2018-02-14T22:29:40.592Z,17.00
2018-02-14T22:32:08.007Z,13.37
2018-02-14T22:34:35.412Z,13.43
2018-02-14T22:37:02.825Z,16.17
2018-02-14T22:39:30.244Z,15.30
2018-02-14T22:41:58.680Z,14.55
2018-02-14T22:44:26.099Z,16.80
2018-02-14T22:46:53.530Z,13.93
2018-02-14T22:49:20.946Z,13.73
2018-02-14T22:51:48.360Z,14.77
2018-02-14T22:54:15.764Z,14.03
2018-02-14T22:56:43.184Z,14.93
2018-02-14T22:59:10.601Z,15.43
2018-02-14T23:01:38.014Z,15.63
2018-02-14T23:04:05.417Z,15.27
2018-02-14T23:06:32.842Z,14.90
2018-02-14T23:09:00.252Z,14.65
2018-02-14T23:11:27.682Z,15.33
2018-02-14T23:13:55.093Z,15.97
2018-02-14T23:16:22.508Z,13.87
2018-02-14T23:18:49.922Z,14.90
2018-02-14T23:21:17.334Z,14.37
2018-02-14T23:23:44.769Z,15.70
2018-02-14T23:26:12.169Z,15.53
2018-02-14T23:28:39.592Z,15.23
2018-02-14T23:31:07.008Z,15.07
2018-02-14T23:33:34.425Z,14.55
2018-02-14T23:36:01.827Z,14.00
2018-02-14T23:38:29.242Z,14.67
2018-02-14T23:40:56.653Z,14.87
2018-02-14T23:43:24.072Z,14.00
2018-02-14T23:45:51.493Z,14.97
2018-02-14T23:48:18.904Z,12.77
2018-02-14T23:50:46.316Z,13.77
2018-02-14T23:53:13.733Z,14.47
2018-02-14T23:55:41.140Z,15.03
2018-02-14T23:58:08.561Z,13.37
